sensor_id;sensor_type;location;lat;lon;timestamp;P1;durP1;ratioP1;P2;durP2;ratioP2
29452;SDS011;16424;50.956;5.320;2023-10-08T00:00:47;11.13;;;4.30;;
29452;SDS011;16424;50.956;5.320;2023-10-08T00:03:21;8.55;;;4.10;;
29452;SDS011;16424;50.956;5.320;2023-10-08T00:05:47;7.38;;;4.20;;
29452;SDS011;16424;50.956;5.320;2023-10-08T00:08:14;9.90;;;3.28;;
29452;SDS011;16424;50.956;5.320;2023-10-08T00:10:41;10.15;;;4.28;;
29452;SDS011;16424;50.956;5.320;2023-10-08T00:13:09;9.82;;;3.92;;
29452;SDS011;16424;50.956;5.320;2023-10-08T00:15:37;12.45;;;4.32;;
29452;SDS011;16424;50.956;5.320;2023-10-08T00:18:15;10.15;;;4.18;;
29452;SDS011;16424;50.956;5.320;2023-10-08T00:20:40;7.53;;;3.45;;
29452;SDS011;16424;50.956;5.320;2023-10-08T00:23:19;6.88;;;3.35;;
29452;SDS011;16424;50.956;5.320;2023-10-08T00:25:51;9.05;;;4.40;;
29452;SDS011;16424;50.956;5.320;2023-10-08T00:28:20;8.95;;;3.85;;
29452;SDS011;16424;50.956;5.320;2023-10-08T00:30:46;8.18;;;3.78;;
29452;SDS011;16424;50.956;5.320;2023-10-08T00:33:13;7.90;;;4.28;;
29452;SDS011;16424;50.956;5.320;2023-10-08T00:35:39;6.40;;;3.53;;
29452;SDS011;16424;50.956;5.320;2023-10-08T00:38:07;6.10;;;3.25;;
29452;SDS011;16424;50.956;5.320;2023-10-08T00:40:40;7.10;;;3.20;;
29452;SDS011;16424;50.956;5.320;2023-10-08T00:43:10;8.30;;;3.25;;
29452;SDS011;16424;50.956;5.320;2023-10-08T00:46:16;6.65;;;2.95;;
29452;SDS011;16424;50.956;5.320;2023-10-08T00:48:49;5.88;;;3.20;;
29452;SDS011;16424;50.956;5.320;2023-10-08T00:51:19;7.88;;;3.25;;
29452;SDS011;16424;50.956;5.320;2023-10-08T00:54:05;9.90;;;3.65;;
29452;SDS011;16424;50.956;5.320;2023-10-08T00:56:34;8.25;;;3.72;;
29452;SDS011;16424;50.956;5.320;2023-10-08T00:59:22;6.80;;;3.30;;
29452;SDS011;16424;50.956;5.320;2023-10-08T01:01:51;8.13;;;3.30;;
29452;SDS011;16424;50.956;5.320;2023-10-08T01:04:24;8.00;;;3.70;;
29452;SDS011;16424;50.956;5.320;2023-10-08T01:06:57;5.35;;;3.50;;
29452;SDS011;16424;50.956;5.320;2023-10-08T01:09:29;8.32;;;3.28;;
29452;SDS011;16424;50.956;5.320;2023-10-08T01:12:06;10.48;;;3.70;;
29452;SDS011;16424;50.956;5.320;2023-10-08T01:14:32;10.90;;;4.40;;
29452;SDS011;16424;50.956;5.320;2023-10-08T01:16:58;8.88;;;3.58;;
29452;SDS011;16424;50.956;5.320;2023-10-08T01:19:25;5.00;;;2.72;;
29452;SDS011;16424;50.956;5.320;2023-10-08T01:21:52;5.65;;;3.13;;
29452;SDS011;16424;50.956;5.320;2023-10-08T01:24:17;6.07;;;3.20;;
29452;SDS011;16424;50.956;5.320;2023-10-08T01:26:44;6.20;;;3.35;;
29452;SDS011;16424;50.956;5.320;2023-10-08T01:29:11;4.95;;;3.10;;
29452;SDS011;16424;50.956;5.320;2023-10-08T01:31:46;6.10;;;3.38;;
29452;SDS011;16424;50.956;5.320;2023-10-08T01:34:18;9.07;;;3.20;;
29452;SDS011;16424;50.956;5.320;2023-10-08T01:36:51;10.15;;;3.40;;
29452;SDS011;16424;50.956;5.320;2023-10-08T01:39:17;6.20;;;3.50;;
29452;SDS011;16424;50.956;5.320;2023-10-08T01:41:45;6.20;;;2.80;;
29452;SDS011;16424;50.956;5.320;2023-10-08T01:44:16;6.82;;;3.28;;
29452;SDS011;16424;50.956;5.320;2023-10-08T01:46:42;6.00;;;3.20;;
29452;SDS011;16424;50.956;5.320;2023-10-08T01:49:08;6.70;;;3.00;;
29452;SDS011;16424;50.956;5.320;2023-10-08T01:51:38;12.23;;;3.00;;
29452;SDS011;16424;50.956;5.320;2023-10-08T01:54:09;8.63;;;3.53;;
29452;SDS011;16424;50.956;5.320;2023-10-08T01:56:39;7.60;;;3.50;;
29452;SDS011;16424;50.956;5.320;2023-10-08T01:59:07;20.08;;;4.15;;
29452;SDS011;16424;50.956;5.320;2023-10-08T02:01:34;7.93;;;3.20;;
29452;SDS011;16424;50.956;5.320;2023-10-08T02:04:00;7.25;;;3.40;;
29452;SDS011;16424;50.956;5.320;2023-10-08T02:06:26;7.70;;;3.05;;
29452;SDS011;16424;50.956;5.320;2023-10-08T02:08:52;7.43;;;2.92;;
29452;SDS011;16424;50.956;5.320;2023-10-08T02:11:18;7.22;;;3.33;;
29452;SDS011;16424;50.956;5.320;2023-10-08T02:13:45;9.07;;;3.92;;
29452;SDS011;16424;50.956;5.320;2023-10-08T02:16:14;6.63;;;3.03;;
29452;SDS011;16424;50.956;5.320;2023-10-08T02:18:43;9.73;;;3.35;;
29452;SDS011;16424;50.956;5.320;2023-10-08T02:21:09;7.13;;;3.45;;
29452;SDS011;16424;50.956;5.320;2023-10-08T02:23:35;8.95;;;3.90;;
29452;SDS011;16424;50.956;5.320;2023-10-08T02:26:02;5.20;;;2.97;;
29452;SDS011;16424;50.956;5.320;2023-10-08T02:28:28;13.70;;;3.55;;
29452;SDS011;16424;50.956;5.320;2023-10-08T02:30:54;6.43;;;3.40;;
29452;SDS011;16424;50.956;5.320;2023-10-08T02:33:19;7.65;;;3.38;;
29452;SDS011;16424;50.956;5.320;2023-10-08T02:35:46;5.43;;;2.80;;
29452;SDS011;16424;50.956;5.320;2023-10-08T02:38:13;10.05;;;3.35;;
29452;SDS011;16424;50.956;5.320;2023-10-08T02:40:43;9.02;;;4.07;;
29452;SDS011;16424;50.956;5.320;2023-10-08T02:43:13;7.10;;;3.67;;
29452;SDS011;16424;50.956;5.320;2023-10-08T02:45:40;6.80;;;2.70;;
29452;SDS011;16424;50.956;5.320;2023-10-08T02:48:09;7.50;;;3.28;;
29452;SDS011;16424;50.956;5.320;2023-10-08T02:50:41;7.35;;;3.28;;
29452;SDS011;16424;50.956;5.320;2023-10-08T02:53:07;8.38;;;3.42;;
29452;SDS011;16424;50.956;5.320;2023-10-08T02:55:40;5.40;;;2.90;;
29452;SDS011;16424;50.956;5.320;2023-10-08T02:58:12;8.82;;;3.85;;
29452;SDS011;16424;50.956;5.320;2023-10-08T03:00:45;8.90;;;3.90;;
29452;SDS011;16424;50.956;5.320;2023-10-08T03:03:14;6.68;;;3.08;;
29452;SDS011;16424;50.956;5.320;2023-10-08T03:08:15;6.28;;;2.97;;
29452;SDS011;16424;50.956;5.320;2023-10-08T03:10:46;6.60;;;3.63;;
29452;SDS011;16424;50.956;5.320;2023-10-08T03:13:15;6.03;;;3.20;;
29452;SDS011;16424;50.956;5.320;2023-10-08T03:15:42;9.52;;;3.22;;
29452;SDS011;16424;50.956;5.320;2023-10-08T03:18:27;9.20;;;3.80;;
29452;SDS011;16424;50.956;5.320;2023-10-08T03:21:06;6.55;;;3.28;;
29452;SDS011;16424;50.956;5.320;2023-10-08T03:24:07;11.27;;;3.88;;
29452;SDS011;16424;50.956;5.320;2023-10-08T03:26:49;9.48;;;3.58;;
29452;SDS011;16424;50.956;5.320;2023-10-08T03:29:20;9.20;;;3.00;;
29452;SDS011;16424;50.956;5.320;2023-10-08T03:31:46;6.43;;;3.42;;
29452;SDS011;16424;50.956;5.320;2023-10-08T03:34:12;4.82;;;2.88;;
29452;SDS011;16424;50.956;5.320;2023-10-08T03:36:40;9.80;;;3.47;;
29452;SDS011;16424;50.956;5.320;2023-10-08T03:39:13;11.95;;;3.10;;
29452;SDS011;16424;50.956;5.320;2023-10-08T03:41:42;6.90;;;2.85;;
29452;SDS011;16424;50.956;5.320;2023-10-08T03:44:16;9.63;;;2.85;;
29452;SDS011;16424;50.956;5.320;2023-10-08T03:46:42;10.02;;;4.00;;
29452;SDS011;16424;50.956;5.320;2023-10-08T03:49:09;7.50;;;2.97;;
29452;SDS011;16424;50.956;5.320;2023-10-08T03:51:55;5.97;;;2.95;;
29452;SDS011;16424;50.956;5.320;2023-10-08T03:54:22;5.05;;;3.08;;
29452;SDS011;16424;50.956;5.320;2023-10-08T03:56:55;10.13;;;4.63;;
29452;SDS011;16424;50.956;5.320;2023-10-08T03:59:21;5.20;;;3.28;;
29452;SDS011;16424;50.956;5.320;2023-10-08T04:01:57;5.13;;;3.13;;
29452;SDS011;16424;50.956;5.320;2023-10-08T04:04:28;9.63;;;3.83;;
29452;SDS011;16424;50.956;5.320;2023-10-08T04:07:13;6.75;;;3.63;;
29452;SDS011;16424;50.956;5.320;2023-10-08T04:09:58;9.67;;;3.60;;
29452;SDS011;16424;50.956;5.320;2023-10-08T04:12:33;8.95;;;3.30;;
29452;SDS011;16424;50.956;5.320;2023-10-08T04:15:02;11.85;;;3.45;;
29452;SDS011;16424;50.956;5.320;2023-10-08T04:17:35;6.47;;;3.45;;
29452;SDS011;16424;50.956;5.320;2023-10-08T04:20:12;5.22;;;2.92;;
29452;SDS011;16424;50.956;5.320;2023-10-08T04:23:00;8.60;;;3.75;;
29452;SDS011;16424;50.956;5.320;2023-10-08T04:25:27;10.27;;;3.38;;
29452;SDS011;16424;50.956;5.320;2023-10-08T04:27:56;7.78;;;3.60;;
29452;SDS011;16424;50.956;5.320;2023-10-08T04:30:27;11.32;;;3.17;;
29452;SDS011;16424;50.956;5.320;2023-10-08T04:33:04;7.13;;;3.20;;
29452;SDS011;16424;50.956;5.320;2023-10-08T04:35:36;6.47;;;3.10;;
29452;SDS011;16424;50.956;5.320;2023-10-08T04:38:24;5.38;;;3.38;;
29452;SDS011;16424;50.956;5.320;2023-10-08T04:40:51;7.43;;;2.83;;
29452;SDS011;16424;50.956;5.320;2023-10-08T04:43:18;5.28;;;3.00;;
29452;SDS011;16424;50.956;5.320;2023-10-08T04:48:22;9.30;;;3.72;;
29452;SDS011;16424;50.956;5.320;2023-10-08T04:50:54;7.25;;;3.22;;
29452;SDS011;16424;50.956;5.320;2023-10-08T04:53:32;7.18;;;3.70;;
29452;SDS011;16424;50.956;5.320;2023-10-08T04:56:05;5.97;;;3.10;;
29452;SDS011;16424;50.956;5.320;2023-10-08T04:58:38;7.57;;;2.90;;
29452;SDS011;16424;50.956;5.320;2023-10-08T05:01:11;8.23;;;3.00;;
29452;SDS011;16424;50.956;5.320;2023-10-08T05:03:53;6.38;;;2.88;;
29452;SDS011;16424;50.956;5.320;2023-10-08T05:06:23;8.50;;;3.67;;
29452;SDS011;16424;50.956;5.320;2023-10-08T05:09:12;6.47;;;3.70;;
29452;SDS011;16424;50.956;5.320;2023-10-08T05:11:53;10.57;;;3.70;;
29452;SDS011;16424;50.956;5.320;2023-10-08T05:17:02;5.38;;;3.08;;
29452;SDS011;16424;50.956;5.320;2023-10-08T05:19:45;8.18;;;4.57;;
29452;SDS011;16424;50.956;5.320;2023-10-08T05:22:23;5.88;;;3.28;;
29452;SDS011;16424;50.956;5.320;2023-10-08T05:25:09;6.40;;;3.22;;
29452;SDS011;16424;50.956;5.320;2023-10-08T05:27:42;6.10;;;3.22;;
29452;SDS011;16424;50.956;5.320;2023-10-08T05:32:56;6.60;;;3.60;;
29452;SDS011;16424;50.956;5.320;2023-10-08T05:38:09;10.27;;;4.63;;
29452;SDS011;16424;50.956;5.320;2023-10-08T05:40:51;10.80;;;3.58;;
29452;SDS011;16424;50.956;5.320;2023-10-08T05:43:24;10.40;;;3.78;;
29452;SDS011;16424;50.956;5.320;2023-10-08T05:46:07;9.45;;;4.57;;
29452;SDS011;16424;50.956;5.320;2023-10-08T05:51:37;9.90;;;4.00;;
29452;SDS011;16424;50.956;5.320;2023-10-08T05:54:17;11.20;;;4.28;;
29452;SDS011;16424;50.956;5.320;2023-10-08T05:56:57;7.82;;;3.90;;
29452;SDS011;16424;50.956;5.320;2023-10-08T05:59:39;8.48;;;4.00;;
29452;SDS011;16424;50.956;5.320;2023-10-08T06:02:22;9.07;;;4.40;;
29452;SDS011;16424;50.956;5.320;2023-10-08T06:04:58;17.02;;;4.10;;
29452;SDS011;16424;50.956;5.320;2023-10-08T06:07:51;13.48;;;3.80;;
29452;SDS011;16424;50.956;5.320;2023-10-08T06:10:28;16.85;;;4.78;;
29452;SDS011;16424;50.956;5.320;2023-10-08T06:12:55;19.70;;;5.03;;
29452;SDS011;16424;50.956;5.320;2023-10-08T06:18:29;8.00;;;3.83;;
29452;SDS011;16424;50.956;5.320;2023-10-08T06:23:37;8.85;;;3.75;;
29452;SDS011;16424;50.956;5.320;2023-10-08T06:26:07;8.35;;;3.67;;
29452;SDS011;16424;50.956;5.320;2023-10-08T06:28:36;11.80;;;4.30;;
29452;SDS011;16424;50.956;5.320;2023-10-08T06:31:03;8.82;;;3.63;;
29452;SDS011;16424;50.956;5.320;2023-10-08T06:33:36;11.43;;;3.65;;
29452;SDS011;16424;50.956;5.320;2023-10-08T06:36:03;6.95;;;3.70;;
29452;SDS011;16424;50.956;5.320;2023-10-08T06:38:35;8.45;;;3.42;;
29452;SDS011;16424;50.956;5.320;2023-10-08T06:41:03;7.03;;;3.50;;
29452;SDS011;16424;50.956;5.320;2023-10-08T06:43:50;8.73;;;4.38;;
29452;SDS011;16424;50.956;5.320;2023-10-08T06:46:28;8.77;;;3.90;;
29452;SDS011;16424;50.956;5.320;2023-10-08T06:48:57;8.85;;;3.65;;
29452;SDS011;16424;50.956;5.320;2023-10-08T06:51:24;11.15;;;3.60;;
29452;SDS011;16424;50.956;5.320;2023-10-08T06:53:51;9.20;;;3.83;;
29452;SDS011;16424;50.956;5.320;2023-10-08T06:56:17;10.60;;;4.00;;
29452;SDS011;16424;50.956;5.320;2023-10-08T06:58:45;15.32;;;3.88;;
29452;SDS011;16424;50.956;5.320;2023-10-08T07:01:14;6.18;;;3.15;;
29452;SDS011;16424;50.956;5.320;2023-10-08T07:03:49;9.30;;;3.28;;
29452;SDS011;16424;50.956;5.320;2023-10-08T07:06:16;9.13;;;3.58;;
29452;SDS011;16424;50.956;5.320;2023-10-08T07:08:50;9.32;;;3.47;;
29452;SDS011;16424;50.956;5.320;2023-10-08T07:11:20;8.30;;;3.65;;
29452;SDS011;16424;50.956;5.320;2023-10-08T07:13:46;9.05;;;2.92;;
29452;SDS011;16424;50.956;5.320;2023-10-08T07:16:12;5.88;;;3.33;;
29452;SDS011;16424;50.956;5.320;2023-10-08T07:18:42;7.45;;;2.95;;
29452;SDS011;16424;50.956;5.320;2023-10-08T07:21:18;9.40;;;3.22;;
29452;SDS011;16424;50.956;5.320;2023-10-08T07:23:49;4.82;;;3.05;;
29452;SDS011;16424;50.956;5.320;2023-10-08T07:26:21;7.32;;;3.45;;
29452;SDS011;16424;50.956;5.320;2023-10-08T07:28:51;7.95;;;3.78;;
29452;SDS011;16424;50.956;5.320;2023-10-08T07:31:18;5.53;;;2.90;;
29452;SDS011;16424;50.956;5.320;2023-10-08T07:36:22;7.47;;;3.05;;
29452;SDS011;16424;50.956;5.320;2023-10-08T07:38:52;9.70;;;3.08;;
29452;SDS011;16424;50.956;5.320;2023-10-08T07:41:18;8.00;;;2.95;;
29452;SDS011;16424;50.956;5.320;2023-10-08T07:43:45;7.90;;;2.83;;
29452;SDS011;16424;50.956;5.320;2023-10-08T07:46:26;5.28;;;3.08;;
29452;SDS011;16424;50.956;5.320;2023-10-08T07:48:55;6.75;;;3.00;;
29452;SDS011;16424;50.956;5.320;2023-10-08T07:51:23;8.43;;;3.20;;
29452;SDS011;16424;50.956;5.320;2023-10-08T07:53:49;7.50;;;3.47;;
29452;SDS011;16424;50.956;5.320;2023-10-08T07:56:21;8.45;;;3.10;;
29452;SDS011;16424;50.956;5.320;2023-10-08T07:58:47;5.70;;;2.63;;
29452;SDS011;16424;50.956;5.320;2023-10-08T08:01:13;12.20;;;3.05;;
29452;SDS011;16424;50.956;5.320;2023-10-08T08:03:39;6.47;;;3.13;;
29452;SDS011;16424;50.956;5.320;2023-10-08T08:06:06;9.73;;;4.68;;
29452;SDS011;16424;50.956;5.320;2023-10-08T08:08:34;5.10;;;2.78;;
29452;SDS011;16424;50.956;5.320;2023-10-08T08:11:01;6.25;;;3.53;;
29452;SDS011;16424;50.956;5.320;2023-10-08T08:13:34;5.55;;;3.05;;
29452;SDS011;16424;50.956;5.320;2023-10-08T08:16:00;10.07;;;3.20;;
29452;SDS011;16424;50.956;5.320;2023-10-08T08:21:02;7.50;;;3.90;;
29452;SDS011;16424;50.956;5.320;2023-10-08T08:23:30;9.18;;;3.20;;
29452;SDS011;16424;50.956;5.320;2023-10-08T08:25:56;9.95;;;2.90;;
29452;SDS011;16424;50.956;5.320;2023-10-08T08:28:34;6.25;;;3.45;;
29452;SDS011;16424;50.956;5.320;2023-10-08T08:31:03;7.60;;;3.30;;
29452;SDS011;16424;50.956;5.320;2023-10-08T08:33:30;7.40;;;3.28;;
29452;SDS011;16424;50.956;5.320;2023-10-08T08:36:16;9.07;;;4.30;;
29452;SDS011;16424;50.956;5.320;2023-10-08T08:38:42;8.35;;;3.60;;
29452;SDS011;16424;50.956;5.320;2023-10-08T08:41:08;6.65;;;3.28;;
29452;SDS011;16424;50.956;5.320;2023-10-08T08:43:37;8.25;;;3.95;;
29452;SDS011;16424;50.956;5.320;2023-10-08T08:46:09;7.28;;;3.67;;
29452;SDS011;16424;50.956;5.320;2023-10-08T08:48:41;7.47;;;3.83;;
29452;SDS011;16424;50.956;5.320;2023-10-08T08:51:11;10.60;;;4.05;;
29452;SDS011;16424;50.956;5.320;2023-10-08T08:53:38;8.60;;;3.63;;
29452;SDS011;16424;50.956;5.320;2023-10-08T08:56:06;12.15;;;4.05;;
29452;SDS011;16424;50.956;5.320;2023-10-08T08:58:34;8.73;;;3.55;;
29452;SDS011;16424;50.956;5.320;2023-10-08T09:01:01;10.55;;;4.00;;
29452;SDS011;16424;50.956;5.320;2023-10-08T09:03:29;11.52;;;3.85;;
29452;SDS011;16424;50.956;5.320;2023-10-08T09:05:58;11.48;;;4.03;;
29452;SDS011;16424;50.956;5.320;2023-10-08T09:08:42;7.25;;;3.53;;
29452;SDS011;16424;50.956;5.320;2023-10-08T09:11:13;7.75;;;3.50;;
29452;SDS011;16424;50.956;5.320;2023-10-08T09:13:41;9.88;;;4.07;;
29452;SDS011;16424;50.956;5.320;2023-10-08T09:18:36;9.90;;;4.28;;
29452;SDS011;16424;50.956;5.320;2023-10-08T09:21:11;8.80;;;4.20;;
29452;SDS011;16424;50.956;5.320;2023-10-08T09:23:44;11.95;;;3.88;;
29452;SDS011;16424;50.956;5.320;2023-10-08T09:26:21;10.95;;;4.28;;
29452;SDS011;16424;50.956;5.320;2023-10-08T09:28:48;13.02;;;4.32;;
29452;SDS011;16424;50.956;5.320;2023-10-08T09:31:15;12.10;;;5.22;;
29452;SDS011;16424;50.956;5.320;2023-10-08T09:33:42;9.68;;;4.65;;
29452;SDS011;16424;50.956;5.320;2023-10-08T09:36:18;11.73;;;4.30;;
29452;SDS011;16424;50.956;5.320;2023-10-08T09:38:45;12.00;;;4.68;;
29452;SDS011;16424;50.956;5.320;2023-10-08T09:41:14;8.00;;;3.88;;
29452;SDS011;16424;50.956;5.320;2023-10-08T09:43:40;10.88;;;4.38;;
29452;SDS011;16424;50.956;5.320;2023-10-08T09:46:17;11.95;;;4.68;;
29452;SDS011;16424;50.956;5.320;2023-10-08T09:48:50;12.07;;;4.78;;
29452;SDS011;16424;50.956;5.320;2023-10-08T09:51:19;7.60;;;4.15;;
29452;SDS011;16424;50.956;5.320;2023-10-08T09:56:20;11.77;;;5.22;;
29452;SDS011;16424;50.956;5.320;2023-10-08T09:58:47;14.15;;;5.20;;
29452;SDS011;16424;50.956;5.320;2023-10-08T10:01:14;10.57;;;4.85;;
29452;SDS011;16424;50.956;5.320;2023-10-08T10:03:44;12.52;;;4.35;;
29452;SDS011;16424;50.956;5.320;2023-10-08T10:06:14;9.38;;;4.20;;
29452;SDS011;16424;50.956;5.320;2023-10-08T10:08:42;13.80;;;4.97;;
29452;SDS011;16424;50.956;5.320;2023-10-08T10:11:08;11.63;;;4.65;;
29452;SDS011;16424;50.956;5.320;2023-10-08T10:13:42;10.73;;;4.72;;
29452;SDS011;16424;50.956;5.320;2023-10-08T10:16:10;11.50;;;5.38;;
29452;SDS011;16424;50.956;5.320;2023-10-08T10:18:38;10.38;;;4.72;;
29452;SDS011;16424;50.956;5.320;2023-10-08T10:23:39;12.95;;;5.15;;
29452;SDS011;16424;50.956;5.320;2023-10-08T10:31:35;17.92;;;5.93;;
29452;SDS011;16424;50.956;5.320;2023-10-08T10:34:05;14.25;;;4.60;;
29452;SDS011;16424;50.956;5.320;2023-10-08T10:36:34;12.10;;;5.32;;
29452;SDS011;16424;50.956;5.320;2023-10-08T10:39:00;9.20;;;5.10;;
29452;SDS011;16424;50.956;5.320;2023-10-08T10:41:29;15.52;;;5.47;;
29452;SDS011;16424;50.956;5.320;2023-10-08T10:43:55;11.95;;;5.22;;
29452;SDS011;16424;50.956;5.320;2023-10-08T10:46:22;15.45;;;5.95;;
29452;SDS011;16424;50.956;5.320;2023-10-08T10:51:42;12.80;;;5.75;;
29452;SDS011;16424;50.956;5.320;2023-10-08T10:54:08;16.17;;;6.25;;
29452;SDS011;16424;50.956;5.320;2023-10-08T10:56:44;18.50;;;6.03;;
29452;SDS011;16424;50.956;5.320;2023-10-08T10:59:12;14.18;;;6.63;;
29452;SDS011;16424;50.956;5.320;2023-10-08T11:01:50;12.55;;;6.55;;
29452;SDS011;16424;50.956;5.320;2023-10-08T11:04:30;17.50;;;5.00;;
29452;SDS011;16424;50.956;5.320;2023-10-08T11:06:56;9.98;;;5.82;;
29452;SDS011;16424;50.956;5.320;2023-10-08T11:09:25;16.08;;;5.75;;
29452;SDS011;16424;50.956;5.320;2023-10-08T11:12:02;23.30;;;6.90;;
29452;SDS011;16424;50.956;5.320;2023-10-08T11:14:36;16.75;;;6.55;;
29452;SDS011;16424;50.956;5.320;2023-10-08T11:17:15;18.42;;;5.88;;
29452;SDS011;16424;50.956;5.320;2023-10-08T11:19:44;16.02;;;5.35;;
29452;SDS011;16424;50.956;5.320;2023-10-08T11:22:14;16.55;;;5.70;;
29452;SDS011;16424;50.956;5.320;2023-10-08T11:24:46;11.02;;;5.30;;
29452;SDS011;16424;50.956;5.320;2023-10-08T11:27:31;11.27;;;5.35;;
29452;SDS011;16424;50.956;5.320;2023-10-08T11:30:03;12.82;;;5.72;;
29452;SDS011;16424;50.956;5.320;2023-10-08T11:32:36;14.23;;;6.00;;
29452;SDS011;16424;50.956;5.320;2023-10-08T11:35:03;15.85;;;5.38;;
29452;SDS011;16424;50.956;5.320;2023-10-08T11:37:44;20.52;;;6.65;;
29452;SDS011;16424;50.956;5.320;2023-10-08T11:40:21;11.93;;;5.45;;
29452;SDS011;16424;50.956;5.320;2023-10-08T11:42:53;15.80;;;5.03;;
29452;SDS011;16424;50.956;5.320;2023-10-08T11:45:24;11.52;;;5.85;;
29452;SDS011;16424;50.956;5.320;2023-10-08T11:48:03;13.68;;;5.68;;
29452;SDS011;16424;50.956;5.320;2023-10-08T11:50:37;14.40;;;5.27;;
29452;SDS011;16424;50.956;5.320;2023-10-08T11:53:03;10.00;;;4.93;;
29452;SDS011;16424;50.956;5.320;2023-10-08T11:55:33;12.10;;;4.82;;
29452;SDS011;16424;50.956;5.320;2023-10-08T11:58:00;11.18;;;5.00;;
29452;SDS011;16424;50.956;5.320;2023-10-08T12:00:38;13.07;;;5.32;;
29452;SDS011;16424;50.956;5.320;2023-10-08T12:03:15;15.23;;;4.88;;
29452;SDS011;16424;50.956;5.320;2023-10-08T12:05:47;9.80;;;4.63;;
29452;SDS011;16424;50.956;5.320;2023-10-08T12:08:14;12.85;;;4.40;;
29452;SDS011;16424;50.956;5.320;2023-10-08T12:10:43;9.27;;;4.57;;
29452;SDS011;16424;50.956;5.320;2023-10-08T12:13:13;12.70;;;5.53;;
29452;SDS011;16424;50.956;5.320;2023-10-08T12:15:41;16.95;;;4.38;;
29452;SDS011;16424;50.956;5.320;2023-10-08T12:18:09;12.20;;;4.80;;
29452;SDS011;16424;50.956;5.320;2023-10-08T12:21:05;10.95;;;5.00;;
29452;SDS011;16424;50.956;5.320;2023-10-08T12:23:36;11.95;;;4.70;;
29452;SDS011;16424;50.956;5.320;2023-10-08T12:26:02;14.32;;;5.53;;
29452;SDS011;16424;50.956;5.320;2023-10-08T12:28:28;15.02;;;5.28;;
29452;SDS011;16424;50.956;5.320;2023-10-08T12:30:54;13.23;;;5.07;;
29452;SDS011;16424;50.956;5.320;2023-10-08T12:33:23;10.73;;;4.57;;
29452;SDS011;16424;50.956;5.320;2023-10-08T12:35:53;14.25;;;5.45;;
29452;SDS011;16424;50.956;5.320;2023-10-08T12:38:21;15.68;;;5.50;;
29452;SDS011;16424;50.956;5.320;2023-10-08T12:40:50;17.92;;;4.30;;
29452;SDS011;16424;50.956;5.320;2023-10-08T12:45:46;10.50;;;4.57;;
29452;SDS011;16424;50.956;5.320;2023-10-08T12:48:24;13.25;;;4.63;;
29452;SDS011;16424;50.956;5.320;2023-10-08T12:50:54;14.40;;;4.60;;
29452;SDS011;16424;50.956;5.320;2023-10-08T12:53:23;9.65;;;4.55;;
29452;SDS011;16424;50.956;5.320;2023-10-08T12:56:02;15.30;;;4.50;;
29452;SDS011;16424;50.956;5.320;2023-10-08T12:58:35;14.63;;;4.78;;
29452;SDS011;16424;50.956;5.320;2023-10-08T13:01:09;12.52;;;5.32;;
29452;SDS011;16424;50.956;5.320;2023-10-08T13:03:36;13.98;;;4.95;;
29452;SDS011;16424;50.956;5.320;2023-10-08T13:06:12;11.73;;;4.43;;
29452;SDS011;16424;50.956;5.320;2023-10-08T13:08:48;13.05;;;4.75;;
29452;SDS011;16424;50.956;5.320;2023-10-08T13:11:17;14.70;;;5.05;;
29452;SDS011;16424;50.956;5.320;2023-10-08T13:13:51;8.95;;;5.35;;
29452;SDS011;16424;50.956;5.320;2023-10-08T13:16:18;12.00;;;4.35;;
29452;SDS011;16424;50.956;5.320;2023-10-08T13:18:46;13.77;;;5.43;;
29452;SDS011;16424;50.956;5.320;2023-10-08T13:21:12;12.73;;;4.85;;
29452;SDS011;16424;50.956;5.320;2023-10-08T13:23:38;14.23;;;5.10;;
29452;SDS011;16424;50.956;5.320;2023-10-08T13:26:04;12.73;;;4.32;;
29452;SDS011;16424;50.956;5.320;2023-10-08T13:28:32;9.32;;;4.28;;
29452;SDS011;16424;50.956;5.320;2023-10-08T13:31:04;11.77;;;4.97;;
29452;SDS011;16424;50.956;5.320;2023-10-08T13:33:40;12.90;;;3.90;;
29452;SDS011;16424;50.956;5.320;2023-10-08T13:36:13;10.90;;;4.80;;
29452;SDS011;16424;50.956;5.320;2023-10-08T13:38:40;15.55;;;4.20;;
29452;SDS011;16424;50.956;5.320;2023-10-08T13:41:09;10.10;;;4.03;;
29452;SDS011;16424;50.956;5.320;2023-10-08T13:43:51;14.35;;;3.63;;
29452;SDS011;16424;50.956;5.320;2023-10-08T13:46:20;10.90;;;4.43;;
29452;SDS011;16424;50.956;5.320;2023-10-08T13:48:50;13.73;;;5.05;;
29452;SDS011;16424;50.956;5.320;2023-10-08T13:51:16;14.15;;;4.47;;
29452;SDS011;16424;50.956;5.320;2023-10-08T13:53:55;8.93;;;4.10;;
29452;SDS011;16424;50.956;5.320;2023-10-08T13:56:25;11.95;;;3.80;;
29452;SDS011;16424;50.956;5.320;2023-10-08T13:58:56;9.95;;;4.10;;
29452;SDS011;16424;50.956;5.320;2023-10-08T14:01:32;11.27;;;3.92;;
29452;SDS011;16424;50.956;5.320;2023-10-08T14:03:59;12.63;;;4.60;;
29452;SDS011;16424;50.956;5.320;2023-10-08T14:06:32;11.40;;;3.88;;
29452;SDS011;16424;50.956;5.320;2023-10-08T14:08:59;13.98;;;4.30;;
29452;SDS011;16424;50.956;5.320;2023-10-08T14:11:26;13.00;;;3.90;;
29452;SDS011;16424;50.956;5.320;2023-10-08T14:13:55;13.38;;;3.90;;
29452;SDS011;16424;50.956;5.320;2023-10-08T14:16:21;9.52;;;3.75;;
29452;SDS011;16424;50.956;5.320;2023-10-08T14:18:53;15.15;;;4.32;;
29452;SDS011;16424;50.956;5.320;2023-10-08T14:21:21;8.85;;;3.33;;
29452;SDS011;16424;50.956;5.320;2023-10-08T14:23:55;8.18;;;3.38;;
29452;SDS011;16424;50.956;5.320;2023-10-08T14:26:22;12.18;;;3.83;;
29452;SDS011;16424;50.956;5.320;2023-10-08T14:28:48;16.20;;;4.55;;
29452;SDS011;16424;50.956;5.320;2023-10-08T14:31:19;13.98;;;4.00;;
29452;SDS011;16424;50.956;5.320;2023-10-08T14:33:49;13.55;;;4.00;;
29452;SDS011;16424;50.956;5.320;2023-10-08T14:36:30;8.70;;;3.60;;
29452;SDS011;16424;50.956;5.320;2023-10-08T14:39:17;10.10;;;3.95;;
29452;SDS011;16424;50.956;5.320;2023-10-08T14:42:02;10.07;;;3.80;;
29452;SDS011;16424;50.956;5.320;2023-10-08T14:44:46;11.45;;;4.45;;
29452;SDS011;16424;50.956;5.320;2023-10-08T14:47:14;10.25;;;4.60;;
29452;SDS011;16424;50.956;5.320;2023-10-08T14:49:40;10.50;;;3.83;;
29452;SDS011;16424;50.956;5.320;2023-10-08T14:52:07;16.40;;;5.20;;
29452;SDS011;16424;50.956;5.320;2023-10-08T14:54:33;9.80;;;4.20;;
29452;SDS011;16424;50.956;5.320;2023-10-08T14:56:59;10.32;;;4.28;;
29452;SDS011;16424;50.956;5.320;2023-10-08T14:59:27;10.45;;;3.92;;
29452;SDS011;16424;50.956;5.320;2023-10-08T15:01:55;10.88;;;3.53;;
29452;SDS011;16424;50.956;5.320;2023-10-08T15:04:21;10.48;;;3.63;;
29452;SDS011;16424;50.956;5.320;2023-10-08T15:06:47;9.57;;;3.78;;
29452;SDS011;16424;50.956;5.320;2023-10-08T15:09:14;13.30;;;4.00;;
29452;SDS011;16424;50.956;5.320;2023-10-08T15:11:46;9.52;;;3.85;;
29452;SDS011;16424;50.956;5.320;2023-10-08T15:14:12;8.73;;;3.80;;
29452;SDS011;16424;50.956;5.320;2023-10-08T15:16:41;11.90;;;4.15;;
29452;SDS011;16424;50.956;5.320;2023-10-08T15:19:08;13.15;;;4.43;;
29452;SDS011;16424;50.956;5.320;2023-10-08T15:21:37;14.00;;;4.60;;
29452;SDS011;16424;50.956;5.320;2023-10-08T15:24:06;15.52;;;4.20;;
29452;SDS011;16424;50.956;5.320;2023-10-08T15:26:35;9.23;;;3.60;;
29452;SDS011;16424;50.956;5.320;2023-10-08T15:29:02;10.25;;;4.15;;
29452;SDS011;16424;50.956;5.320;2023-10-08T15:31:28;12.07;;;4.38;;
29452;SDS011;16424;50.956;5.320;2023-10-08T15:33:55;14.98;;;4.82;;
29452;SDS011;16424;50.956;5.320;2023-10-08T15:36:20;10.40;;;4.38;;
29452;SDS011;16424;50.956;5.320;2023-10-08T15:38:46;10.43;;;4.40;;
29452;SDS011;16424;50.956;5.320;2023-10-08T15:41:12;13.27;;;5.28;;
29452;SDS011;16424;50.956;5.320;2023-10-08T15:43:41;12.00;;;4.63;;
29452;SDS011;16424;50.956;5.320;2023-10-08T15:46:09;17.73;;;4.00;;
29452;SDS011;16424;50.956;5.320;2023-10-08T15:48:35;9.55;;;3.75;;